AirNav   Everest Fuels
 
 665 users online  

T00 Chambers County Airport
Anahuac, Texas, USA

GOING TO ANAHUAC?


FAA INFORMATION EFFECTIVE 01 DECEMBER 2022

Location

FAA Identifier: T00
Lat/Long: 29-46-11.3332N 094-39-48.5535W
29-46.188887N 094-39.809225W
29.7698148,-94.6634871
(estimated)
Elevation: 21.2 ft. / 6.5 m (surveyed)
Variation: 05E (1995)
From city: 1 mile E of ANAHUAC, TX
Time zone: UTC -6 (UTC -5 during Daylight Saving Time)
Zip code: 77514

Airport Operations

Airport use: Open to the public
Activation date: 10/1978
Control tower: no
ARTCC: HOUSTON CENTER
FSS: MONTGOMERY COUNTY FLIGHT SERVICE STATION
NOTAMs facility: CXO (NOTAM-D service available)
Attendance: MON-FRI 0800-1700
Wind indicator: lighted
Segmented circle: yes
Lights: DUSK-DAWN. MIRL RWY 12/30 PRESET LOW INTST; TO INCR INTST ACTVT - CTAF.
Beacon: white-green (lighted land airport)
Operates sunset to sunrise.

Airport Communications

CTAF: 122.9
HOUSTON APPROACH: 134.45 [0600-0000]
HOUSTON DEPARTURE: 134.45 [0600-0000]
BLTWY RNAV DP: 134.45
BLUEBELL STAR: 124.225
BORRN RNAV DP: 134.45
CESAN STAR: 121.3
DREMR DP: 134.45
HOODO RNAV DP: 134.45
HUDZY STAR: 120.05
INDIE RNAV DP: 134.45
KARRR RNAV DP: 134.45
LURIC DP: 134.45
MMALT RNAV DP: 134.45
OHIIO STAR: 120.05
PALACIOS DP: 134.45
STRYA DP: 134.45
STYCK DP: 134.45
TKNIQ STAR: 119.625
TSHIRT STAR: 119.175
WAPPL STAR: 120.05
WATFO DP: 134.45
WYLSN RNAV DP: 134.45
WX AWOS-3PT at T78 (19 nm N): 120.775 (936-587-4150)

Nearby radio navigation aids

VOR radial/distance  VOR name  Freq  Var
MHFr011/14.1TRINITY VOR/DME113.6007E
DASr177/25.2DAISETTA VORTAC116.9005E
VUHr014/31.9SCHOLES VOR/DME113.0006E
SBIr272/33.0SABINE PASS VOR/DME115.4007E
BPTr246/35.3BEAUMONT VOR/DME114.5007E
IAHr103/37.2HUMBLE VORTAC116.6005E

 
NDB name  Hdg/Dist  Freq  Var  ID
GOODHUE226/29.636807EGDE --. -.. .

Airport Services

Fuel available: 100LL JET-A JET-A1+
100LL:FUEL 24 HR SELF-SERVE.
Parking: tiedowns
Bottled oxygen: NONE
Bulk oxygen: NONE

Runway Information

Runway 12/30

Dimensions: 3005 x 60 ft. / 916 x 18 m
Surface: asphalt, in poor condition
EXTSV CRACKING.
Weight bearing capacity: 
Single wheel: 13.0
Runway edge lights: medium intensity
RUNWAY 12  RUNWAY 30
Latitude: 29-46.363987N29-46.053815N
Longitude: 094-39.966058W094-39.522763W
Elevation: 20.4 ft.20.4 ft.
Traffic pattern: leftright
Runway heading: 124 magnetic, 129 true304 magnetic, 309 true
Markings: nonprecision, in good conditionnonprecision, in good condition
Visual slope indicator: 2-light PAPI on left (4.00 degrees glide path)
Touchdown point: yes, no lightsyes, no lights
Obstructions: 45 ft. pole, 882 ft. from runway, 160 ft. left of centerline, 15:1 slope to clear15 ft. road, 530 ft. from runway, 280 ft. left of centerline, 22:1 slope to clear

Runway 17/35

Dimensions: 1900 x 300 ft. / 579 x 91 m
Surface: turf, in good condition
RUNWAY 17  RUNWAY 35
Latitude: 29-46.313965N29-46.000500N
Longitude: 094-39.911733W094-39.911733W
Elevation: 20.0 ft.20.0 ft.
Traffic pattern: leftright
Runway heading: 175 magnetic, 180 true355 magnetic, 000 true
Markings: none, in good conditionnone, in good condition
Touchdown point: yes, no lightsyes, no lights
Obstructions: 60 ft. trees, 890 ft. from runway, 90 ft. left of centerline, 14:1 slope to clear17 ft. road, 230 ft. from runway, 13:1 slope to clear

Airport Ownership and Management from official FAA records

Ownership: Publicly-owned
Owner: CHAMBERS COUNTY
PO BOX 938
ANAHUAC, TX 77514
Phone 409-267-2400
Manager: RONNIE BROWN
PO BOX 938
ANAHUAC, TX 77514
Phone 409-267-2719

Airport Operational Statistics

Aircraft based on the field: 9
Single engine airplanes: 8
Multi engine airplanes: 1
    
Aircraft operations: avg 46/week *
67% local general aviation
33% transient general aviation
* for 12-month period ending 23 April 2020

Additional Remarks

RWY 17/35 SOFT WHEN WET.
RWY 17, PAPI RWY 12 IN RWY 17 APCH, DO NOT LAND BFR XNG RWY 12.
FOR CD CTC HOUSTON APCH AT 281-443-5844 TO CNL IFR CALL 281-443-5888.

Instrument Procedures

NOTE: All procedures below are presented as PDF files. If you need a reader for these files, you should download the free Adobe Reader.

NOT FOR NAVIGATION. Please procure official charts for flight.
FAA instrument procedures published for use from 01 December 2022 at 0901Z to 29 December 2022 at 0900z.

 
STARs - Standard Terminal Arrivals
BLUBELL FOUR   download (299KB)
CESAN FOUR (RNAV)   2 pages: [1] [2] (396KB)
HUDZY FOUR   2 pages: [1] [2] (327KB)
OHIIO FOUR   download (286KB)
TKNIQ THREE (RNAV)   2 pages: [1] [2] (326KB)
TSHRT TWO ARRIVAL **NEW**   2 pages: [1] [2] (371KB)
WAPPL SIX (RNAV)   2 pages: [1] [2] (374KB)
WAPPL SIX (RNAV), CONT.2   download (280KB)
 
IAPs - Instrument Approach Procedures
RNAV (GPS) RWY 12   download (196KB)
 
Departure Procedures
BLTWY SEVEN (RNAV)   download (153KB)
BORRN FOUR (RNAV)   2 pages: [1] [2] (293KB)
HOODO SEVEN (RNAV)   download (194KB)
INDIE EIGHT (RNAV)   download (179KB)
KARRR SIX (RNAV)   2 pages: [1] [2] (250KB)
LURIC EIGHT (RNAV)   download (200KB)
MMALT FIVE (RNAV)   download (204KB)
PALACIOS THREE **NEW**   2 pages: [1] [2] (300KB)
STRYA EIGHT (RNAV)   download (190KB)
STYCK EIGHT (RNAV)   download (177KB)
WATFO FIVE (RNAV)   download (158KB)
WYLSN EIGHT (RNAV)   download (163KB)
NOTE: Special Take-Off Minimums/Departure Procedures apply   download (70KB)

Other nearby airports with instrument procedures:

54T - RWJ Airpark (10 nm W)
KHPY - Baytown Airport (15 nm W)
T78 - Liberty Municipal Airport (19 nm N)
T41 - La Porte Municipal Airport (22 nm W)
KEFD - Ellington Airport (28 nm W)
 
Loc | Ops | Rwys | IFR | FBO | Links
Com | Nav | Svcs | Stats | Notes
Area around T00 (Chambers County Airport)
 
Road maps at: MapQuest Bing Google
 
Aerial photo
WARNING: Photo may not be current or correct
Aerial photo of T00 (Chambers County Airport)
Photo taken 04-Mar-2007
on final for runway 30

Do you have a better or more recent aerial photo of Chambers County Airport that you would like to share? If so, please send us your photo.

 
Sectional chart

 
Airport distance calculator
Flying to Chambers County Airport? Find the distance to fly.

From to T00

Sunrise and sunset
Times for 04-Dec-2022
 Local
(UTC-6)
 Zulu
(UTC)
Morning civil twilight06:3412:34
Sunrise07:0013:00
Sunset17:1823:18
Evening civil twilight17:4423:44

Current date and time
Zulu (UTC)  04-Dec-2022 13:28:43
Local (UTC-6)  04-Dec-2022 07:28:43
 
METAR
KT41 
22nm W 
041315Z AUTO 10SM OVC010 16/13 A3027 RMK AO2 T01600127
KEFD 
28nm W 
041154Z 34005KT 10SM BKN048 16/12 A3024
KBMT 
29nm NE 
041310Z AUTO 03005KT 4SM BR OVC004 18/18 A3027 RMK AO2 T01800175
KGLS 
32nm S 
041252Z 35009KT 10SM BKN006 OVC055 18/15 A3025 RMK AO2 SLP244 T01780150
KHOU 
33nm W 
041253Z 36006KT 10SM BKN050 16/11 A3026 RMK AO2 SLP253 T01610106
KLVJ 
34nm SW 
041302Z AUTO 34005KT 10SM BKN011 OVC050 16/12 A3028 RMK AO2 T01610117
KBPT 
35nm E 
041253Z 03004KT 3SM BR OVC003 18/17 A3025 RMK AO2 SLP244 T01780172
KIAH 
39nm W 
041253Z 34004KT 10SM BKN010 OVC047 14/11 A3028 RMK AO2 SLP254 T01440106
K6R3 
39nm NW 
041315Z AUTO OVC009 A3030 RMK AO2 PWINO TSNO
TAF
KEFD 
28nm W 
041200Z 0412/0518 36006KT 9999 OVC020 QNH2999INS BECMG 0420/0421 10006KT 9999 BKN020 QNH2997INS BECMG 0502/0503 13006KT 8000 BR OVC007 QNH2999INS TX22/0418Z TN16/0414Z
KGLS 
32nm S 
041135Z 0412/0512 36007KT P6SM SCT028 BKN045 FM041500 03008KT 6SM BR BKN006 FM042100 08007KT P6SM SCT015 BKN025 FM050300 13006KT 4SM BR BKN006 OVC015
KHOU 
33nm W 
041135Z 0412/0512 34006KT P6SM BKN045 FM041500 36005KT P6SM BKN019 FM041900 04005KT P6SM SCT015 BKN025 FM042200 10005KT P6SM SCT015 BKN025 FM050300 14005KT 5SM BR OVC007
KBPT 
35nm E 
041120Z 0412/0512 01005KT 5SM BR OVC007 FM041600 03004KT P6SM SCT007 BKN021 FM050000 08005KT P6SM OVC050 FM050500 13005KT 4SM BR OVC007 FM050800 14005KT 2SM BR OVC003
NOTAMs
Click for the latest NOTAMs
NOTAMs are issued by the DoD/FAA and will open in a separate window not controlled by AirNav.

 

 
 

FBO, Fuel Providers, and Aircraft Ground Support

  
 Business Name 
 
 Contact 
 
 Services / Description 
 
Fuel Prices
 
Comments
  
Chambers County Anahuac Airport 409-267-2719
no information available

If you are affiliated with Chambers County Anahuac Airport and would like to show here your services, contact info, web link, logo, and more, click here
100LL Jet A
SS $5.50 $4.75 
 Updated 26-Oct-2022
 
   write
SS=Self service
Update Fuel Prices
 

Would you like to see your business listed on this page?

 If your business provides an interesting product or service to pilots, flight crews, aircraft, or users of the Chambers County Airport, you should consider listing it here.  To start the listing process, click on the button below
 
Add a business
 

Other Pages about Chambers County Airport

www.co.chambers.tx.us/...
 
Update a link
 
Copyright © AirNav, LLC. All rights reserved. Privacy Policy  Contact